Time;durP1;ratioP1;P1;durP2;ratioP2;P2;SDS_P1;SDS_P2;PMS_P1;PMS_P2;Temp;Humidity;BMP_temperature;BMP_pressure;BME280_temperature;BME280_humidity;BME280_pressure;Samples;Min_cycle;Max_cycle;Signal;HPM_P1;HPM_P2
2022/03/17 00:02:28;;;;;;;66.63;28.83;;;;;;;;;;4773937;30;20039;-84
2022/03/17 00:07:33;;;;;;;67.93;28.80;;;;;;;;;;4981051;24;20054;-85
2022/03/17 00:09:59;;;;;;;65.30;28.40;;;;;;;;;;4828217;29;20026;-84
2022/03/17 00:12:37;;;;;;;69.03;30.90;;;;;;;;;;4828406;29;20419;-89
2022/03/17 00:15:21;;;;;;;67.50;30.42;;;;;;;;;;4844890;29;20238;-90
2022/03/17 00:17:48;;;;;;;61.65;28.42;;;;;;;;;;4828350;29;20057;-87
2022/03/17 00:20:16;;;;;;;72.50;30.00;;;;;;;;;;4828706;29;20124;-84
2022/03/17 00:22:42;;;;;;;68.85;28.95;;;;;;;;;;4828561;29;20373;-85
2022/03/17 00:27:34;;;;;;;62.00;27.05;;;;;;;;;;4938995;23;20086;-84
2022/03/17 00:30:01;;;;;;;55.40;24.27;;;;;;;;;;4810224;29;20496;-91
2022/03/17 00:32:27;;;;;;;60.08;26.67;;;;;;;;;;4826547;29;20039;-83
2022/03/17 00:37:38;;;;;;;54.08;23.50;;;;;;;;;;4826285;29;20065;-84
2022/03/17 00:40:04;;;;;;;60.88;25.42;;;;;;;;;;4810075;29;20061;-84
2022/03/17 00:42:31;;;;;;;56.70;24.73;;;;;;;;;;4810035;29;20472;-84
2022/03/17 00:44:57;;;;;;;56.97;25.13;;;;;;;;;;4826251;29;20476;-84
2022/03/17 00:47:23;;;;;;;56.47;24.45;;;;;;;;;;4809897;29;20037;-84
2022/03/17 00:49:52;;;;;;;59.05;25.98;;;;;;;;;;4826153;29;20049;-90
2022/03/17 00:52:37;;;;;;;57.63;24.65;;;;;;;;;;4934307;24;20062;-88
2022/03/17 00:57:32;;;;;;;67.05;27.83;;;;;;;;;;4952253;24;20052;-84
2022/03/17 00:59:58;;;;;;;65.22;28.17;;;;;;;;;;4827828;29;20093;-89
2022/03/17 01:02:25;;;;;;;59.08;26.42;;;;;;;;;;4828284;29;20033;-84
2022/03/17 01:04:51;;;;;;;64.47;27.55;;;;;;;;;;4827543;29;20053;-84
2022/03/17 01:07:24;;;;;;;62.08;26.95;;;;;;;;;;4827947;29;20046;-91
2022/03/17 01:09:53;;;;;;;66.73;28.60;;;;;;;;;;4828033;29;20061;-91
2022/03/17 01:12:19;;;;;;;67.32;27.58;;;;;;;;;;4827989;29;20037;-84
2022/03/17 01:14:51;;;;;;;74.32;29.40;;;;;;;;;;4844050;29;20033;-89
2022/03/17 01:17:21;;;;;;;59.45;27.85;;;;;;;;;;4827465;29;20109;-91
2022/03/17 01:19:47;;;;;;;56.60;25.42;;;;;;;;;;4827392;29;20026;-91
2022/03/17 01:22:13;;;;;;;58.40;27.20;;;;;;;;;;4843274;29;20041;-89
2022/03/17 01:24:40;;;;;;;59.35;24.25;;;;;;;;;;4843891;29;20026;-85
2022/03/17 01:27:06;;;;;;;51.75;23.00;;;;;;;;;;4827212;29;20038;-84
2022/03/17 01:29:32;;;;;;;56.95;25.73;;;;;;;;;;4827467;29;20395;-89
2022/03/17 01:31:58;;;;;;;59.83;26.85;;;;;;;;;;4843511;29;20046;-84
2022/03/17 01:34:24;;;;;;;56.30;25.20;;;;;;;;;;4827327;29;20029;-85
2022/03/17 01:36:51;;;;;;;61.47;25.42;;;;;;;;;;4827516;29;20030;-84
2022/03/17 01:39:19;;;;;;;59.08;26.35;;;;;;;;;;4843404;29;20082;-89
2022/03/17 01:41:45;;;;;;;59.03;24.00;;;;;;;;;;4869588;23;20061;-85
2022/03/17 01:44:12;;;;;;;62.35;24.45;;;;;;;;;;4842573;29;20029;-84
2022/03/17 01:49:23;;;;;;;54.55;24.05;;;;;;;;;;4842698;29;20085;-90
2022/03/17 01:51:49;;;;;;;55.97;23.83;;;;;;;;;;4826469;29;20461;-85
2022/03/17 01:54:19;;;;;;;50.17;24.40;;;;;;;;;;4826243;29;20676;-90
2022/03/17 01:57:04;;;;;;;55.13;25.73;;;;;;;;;;4826215;29;20026;-89
2022/03/17 02:00:07;;;;;;;50.38;21.67;;;;;;;;;;4826347;29;20030;-91
2022/03/17 02:02:42;;;;;;;49.00;20.20;;;;;;;;;;4825999;29;20030;-84
2022/03/17 02:05:28;;;;;;;59.97;24.52;;;;;;;;;;4826381;29;20061;-84
2022/03/17 02:08:06;;;;;;;56.42;23.95;;;;;;;;;;4842492;29;20042;-89
2022/03/17 02:13:39;;;;;;;53.15;24.50;;;;;;;;;;4842637;29;20109;-83
2022/03/17 02:16:07;;;;;;;60.55;24.00;;;;;;;;;;4840185;24;1750134;-87
2022/03/17 02:18:33;;;;;;;58.53;25.65;;;;;;;;;;4823859;29;20039;-84
2022/03/17 02:20:59;;;;;;;63.45;26.48;;;;;;;;;;4894841;24;21121;-89
2022/03/17 02:26:10;;;;;;;61.63;25.38;;;;;;;;;;4842732;29;20125;-89
2022/03/17 02:28:37;;;;;;;57.47;24.50;;;;;;;;;;4843078;29;20436;-84
2022/03/17 02:31:04;;;;;;;53.92;23.77;;;;;;;;;;4889761;24;20058;-86
2022/03/17 02:33:30;;;;;;;51.38;23.08;;;;;;;;;;4823704;29;20103;-85
2022/03/17 02:35:56;;;;;;;51.33;22.48;;;;;;;;;;4843244;24;20106;-82
2022/03/17 02:38:22;;;;;;;52.97;23.83;;;;;;;;;;4826297;29;20034;-84
2022/03/17 02:40:52;;;;;;;50.65;22.10;;;;;;;;;;4968868;23;20084;-90
2022/03/17 02:43:21;;;;;;;52.28;21.80;;;;;;;;;;4808193;29;20045;-90
2022/03/17 02:45:55;;;;;;;56.60;23.02;;;;;;;;;;4808972;29;20034;-90
2022/03/17 02:48:27;;;;;;;;;;;;;;;;;;4808628;29;20034;-89
2022/03/17 02:50:53;;;;;;;50.33;21.33;;;;;;;;;;4824475;29;19909;-90
2022/03/17 02:53:41;;;;;;;51.42;21.98;;;;;;;;;;4808235;29;20141;-88
2022/03/17 02:56:07;;;;;;;58.65;24.88;;;;;;;;;;4824504;29;20044;-83
2022/03/17 02:59:05;;;;;;;57.60;25.98;;;;;;;;;;4824348;29;20042;-90
2022/03/17 03:01:42;;;;;;;64.68;26.17;;;;;;;;;;4824475;29;20081;-84
2022/03/17 03:04:16;;;;;;;66.47;28.08;;;;;;;;;;4808228;29;20056;-90
2022/03/17 03:06:45;;;;;;;59.15;25.35;;;;;;;;;;4808379;29;20042;-84
2022/03/17 03:09:12;;;;;;;63.05;26.98;;;;;;;;;;4808155;29;20031;-82
2022/03/17 03:11:39;;;;;;;61.97;27.02;;;;;;;;;;4824226;29;20433;-84
2022/03/17 03:14:14;;;;;;;53.00;24.02;;;;;;;;;;4806772;29;20438;-88
2022/03/17 03:16:40;;;;;;;53.28;24.05;;;;;;;;;;4833051;24;20059;-84
2022/03/17 03:19:06;;;;;;;55.25;23.02;;;;;;;;;;4823057;29;20027;-83
2022/03/17 03:21:33;;;;;;;52.88;24.17;;;;;;;;;;4850171;24;20057;-84
2022/03/17 03:24:05;;;;;;;50.58;22.60;;;;;;;;;;4826074;29;20482;-89
2022/03/17 03:26:31;;;;;;;49.42;21.95;;;;;;;;;;4842483;29;20064;-82
2022/03/17 03:28:57;;;;;;;57.00;24.10;;;;;;;;;;4826003;29;20041;-84
2022/03/17 03:31:24;;;;;;;53.17;21.80;;;;;;;;;;4837624;24;20086;-83
2022/03/17 03:34:02;;;;;;;48.60;22.40;;;;;;;;;;4804755;29;20073;-90
2022/03/17 03:39:12;;;;;;;45.85;19.95;;;;;;;;;;4806188;29;20100;-82
2022/03/17 03:41:38;;;;;;;54.45;21.20;;;;;;;;;;4805705;29;20031;-84
2022/03/17 03:44:05;;;;;;;52.55;21.90;;;;;;;;;;4805146;29;20472;-89
2022/03/17 03:46:31;;;;;;;49.90;21.75;;;;;;;;;;4807174;29;20035;-84
2022/03/17 03:49:06;;;;;;;50.10;21.90;;;;;;;;;;4809055;29;20035;-89
2022/03/17 03:51:33;;;;;;;52.15;22.42;;;;;;;;;;4809354;29;20035;-84
2022/03/17 03:54:19;;;;;;;52.47;24.92;;;;;;;;;;4807949;29;20031;-84
2022/03/17 03:56:58;;;;;;;48.55;22.15;;;;;;;;;;4807697;29;20426;-84
2022/03/17 03:59:28;;;;;;;56.25;22.10;;;;;;;;;;4808046;29;20088;-90
2022/03/17 04:02:01;;;;;;;52.92;22.13;;;;;;;;;;4807886;29;20393;-83
2022/03/17 04:04:28;;;;;;;53.63;22.38;;;;;;;;;;4808023;29;20042;-84
2022/03/17 04:06:56;;;;;;;49.45;21.88;;;;;;;;;;4863727;24;20503;-83
2022/03/17 04:09:26;;;;;;;45.40;20.67;;;;;;;;;;4845448;29;20053;-84
2022/03/17 04:11:52;;;;;;;50.95;22.67;;;;;;;;;;4828840;29;20046;-83
2022/03/17 04:14:19;;;;;;;50.92;21.83;;;;;;;;;;4828716;29;20510;-83
2022/03/17 04:16:45;;;;;;;55.45;22.98;;;;;;;;;;4841848;24;20057;-89
2022/03/17 04:19:12;;;;;;;50.80;22.27;;;;;;;;;;4826480;29;20029;-83
2022/03/17 04:21:39;;;;;;;50.22;22.02;;;;;;;;;;4910188;24;20075;-83
2022/03/17 04:24:14;;;;;;;53.95;23.13;;;;;;;;;;4845125;29;20041;-89
2022/03/17 04:26:47;;;;;;;46.78;21.55;;;;;;;;;;4828421;29;20034;-90
2022/03/17 04:29:13;;;;;;;53.97;20.97;;;;;;;;;;4828688;29;20406;-83
2022/03/17 04:31:40;;;;;;;48.17;20.67;;;;;;;;;;4828269;29;20052;-83
2022/03/17 04:34:06;;;;;;;56.92;22.27;;;;;;;;;;4828472;29;20030;-83
2022/03/17 04:36:36;;;;;;;46.05;20.38;;;;;;;;;;4844406;29;20041;-90
2022/03/17 04:39:20;;;;;;;49.55;22.38;;;;;;;;;;4823974;29;20512;-87
2022/03/17 04:42:09;;;;;;;51.13;22.48;;;;;;;;;;4824451;29;20034;-84
2022/03/17 04:44:38;;;;;;;47.53;20.67;;;;;;;;;;4808796;29;20041;-84
2022/03/17 04:47:04;;;;;;;47.05;20.30;;;;;;;;;;4824325;29;20034;-83
2022/03/17 04:49:45;;;;;;;49.00;21.05;;;;;;;;;;4824361;29;20047;-90
2022/03/17 04:55:33;;;;;;;45.20;19.92;;;;;;;;;;4824811;29;20063;-90
2022/03/17 04:57:59;;;;;;;51.33;20.92;;;;;;;;;;4824612;29;20377;-84
2022/03/17 05:00:37;;;;;;;46.00;20.88;;;;;;;;;;4825051;29;20034;-90
2022/03/17 05:03:03;;;;;;;46.38;21.67;;;;;;;;;;4822914;29;20034;-81
2022/03/17 05:05:30;;;;;;;43.20;20.75;;;;;;;;;;4822812;29;20053;-81
2022/03/17 05:07:58;;;;;;;50.15;23.25;;;;;;;;;;4810579;29;20095;-82
2022/03/17 05:10:25;;;;;;;48.60;20.92;;;;;;;;;;4821189;29;20042;-82
2022/03/17 05:12:51;;;;;;;52.72;21.88;;;;;;;;;;4826875;29;20499;-84
2022/03/17 05:15:20;;;;;;;49.78;22.98;;;;;;;;;;4827169;29;20075;-84
2022/03/17 05:17:49;;;;;;;52.20;22.02;;;;;;;;;;4827608;29;20441;-83
2022/03/17 05:20:16;;;;;;;57.70;24.60;;;;;;;;;;4827417;29;20447;-84
2022/03/17 05:22:43;;;;;;;54.53;23.38;;;;;;;;;;4844007;29;20061;-85
2022/03/17 05:25:10;;;;;;;56.40;24.35;;;;;;;;;;4827994;29;20037;-90
2022/03/17 05:27:40;;;;;;;50.63;24.02;;;;;;;;;;4827710;29;20491;-84
2022/03/17 05:30:07;;;;;;;50.33;22.77;;;;;;;;;;4827620;29;20065;-83
2022/03/17 05:32:34;;;;;;;47.13;22.48;;;;;;;;;;4827925;29;20132;-82
2022/03/17 05:35:00;;;;;;;47.78;22.98;;;;;;;;;;4827361;29;20034;-85
2022/03/17 05:37:29;;;;;;;52.33;23.08;;;;;;;;;;4827409;29;20090;-83
2022/03/17 05:39:58;;;;;;;48.47;22.38;;;;;;;;;;4843870;29;20026;-84
2022/03/17 05:48:24;;;;;;;45.10;22.70;;;;;;;;;;4808487;29;20038;-84
2022/03/17 05:50:53;;;;;;;46.22;23.35;;;;;;;;;;4828096;29;20034;-85
2022/03/17 05:53:19;;;;;;;52.25;23.20;;;;;;;;;;4843292;29;20114;-82
2022/03/17 05:58:38;;;;;;;49.50;22.00;;;;;;;;;;4845425;23;20081;-92
2022/03/17 06:04:14;;;;;;;46.60;25.33;;;;;;;;;;4826058;29;20045;-86
2022/03/17 06:09:25;;;;;;;45.42;25.08;;;;;;;;;;4826919;29;20042;-81
2022/03/17 06:11:54;;;;;;;58.05;27.77;;;;;;;;;;4808092;29;20137;-81
2022/03/17 06:14:20;;;;;;;55.40;26.55;;;;;;;;;;4808377;29;20460;-82
2022/03/17 06:16:46;;;;;;;60.20;25.73;;;;;;;;;;4824811;29;20031;-83
2022/03/17 06:19:12;;;;;;;47.58;23.65;;;;;;;;;;4808885;29;20480;-84
2022/03/17 06:21:38;;;;;;;50.10;24.75;;;;;;;;;;4809092;29;20038;-84
2022/03/17 06:24:12;;;;;;;63.15;26.77;;;;;;;;;;4808727;29;20034;-84
2022/03/17 08:11:39;;;;;;;28.88;12.68;;;;;;;;;;5116858;23;20162;-83
2022/03/17 08:41:02;;;;;;;21.13;10.55;;;;;;;;;;5415478;23;20148;-84
2022/03/17 09:16:40;;;;;;;23.50;11.77;;;;;;;;;;4844096;29;20049;-83
2022/03/17 09:27:40;;;;;;;33.37;13.10;;;;;;;;;;4856806;23;20117;-84
2022/03/17 09:30:06;;;;;;;28.02;14.75;;;;;;;;;;4826887;29;20283;-83
2022/03/17 09:32:32;;;;;;;33.88;16.15;;;;;;;;;;4826300;29;20042;-83
2022/03/17 09:34:59;;;;;;;25.30;11.80;;;;;;;;;;4842717;29;20029;-84
2022/03/17 09:40:28;;;;;;;28.10;13.73;;;;;;;;;;4844052;29;20078;-83
2022/03/17 09:43:29;;;;;;;27.48;11.30;;;;;;;;;;4826702;29;20042;-87
2022/03/17 09:45:59;;;;;;;25.30;12.45;;;;;;;;;;4843709;29;20484;-87
2022/03/17 09:48:26;;;;;;;19.88;9.68;;;;;;;;;;4843446;29;20094;-83
2022/03/17 09:50:55;;;;;;;23.92;10.88;;;;;;;;;;4826751;29;20439;-81
2022/03/17 09:53:40;;;;;;;20.95;10.98;;;;;;;;;;4827064;29;20081;-84
2022/03/17 09:56:13;;;;;;;25.20;12.15;;;;;;;;;;4827198;29;20042;-86
2022/03/17 09:58:40;;;;;;;25.15;11.30;;;;;;;;;;4843368;29;20049;-84
2022/03/17 10:04:09;;;;;;;27.60;10.82;;;;;;;;;;4842558;29;20105;-83
2022/03/17 10:06:39;;;;;;;22.08;11.52;;;;;;;;;;4826997;29;20036;-84
2022/03/17 10:09:07;;;;;;;25.02;10.98;;;;;;;;;;4827255;29;20033;-83
2022/03/17 10:11:37;;;;;;;25.23;12.10;;;;;;;;;;4827050;29;20046;-84
2022/03/17 10:14:05;;;;;;;22.13;10.98;;;;;;;;;;4829475;29;20033;-84
2022/03/17 10:16:57;;;;;;;20.73;11.68;;;;;;;;;;4830080;29;20080;-86
2022/03/17 10:22:43;;;;;;;21.30;11.65;;;;;;;;;;4828730;23;20068;-84
2022/03/17 10:25:09;;;;;;;24.48;10.93;;;;;;;;;;4807870;29;20053;-85
2022/03/17 10:27:40;;;;;;;26.83;12.13;;;;;;;;;;4803863;29;20031;-82
2022/03/17 10:30:27;;;;;;;23.20;12.07;;;;;;;;;;4807888;29;20125;-84
2022/03/17 10:33:15;;;;;;;21.65;10.55;;;;;;;;;;4822460;29;20061;-86
2022/03/17 10:38:46;;;;;;;23.20;9.20;;;;;;;;;;4803536;29;20035;-83
2022/03/17 10:41:21;;;;;;;24.58;10.80;;;;;;;;;;4810726;29;20066;-83
2022/03/17 10:44:08;;;;;;;21.00;9.70;;;;;;;;;;4807827;29;20450;-82
2022/03/17 10:49:38;;;;;;;24.05;10.80;;;;;;;;;;4824821;29;20046;-87
2022/03/17 10:52:10;;;;;;;24.50;11.13;;;;;;;;;;4807361;29;20046;-86
2022/03/17 10:54:54;;;;;;;24.85;11.90;;;;;;;;;;4809187;29;20031;-84
2022/03/17 10:57:30;;;;;;;;;;;;;;;;;;;;;
2022/03/17 11:00:20;;;;;;;;;;;;;;;;;;;;;
2022/03/17 11:05:35;;;;;;;18.52;7.95;;;;;;;;;;4827560;29;20053;-83
2022/03/17 11:08:10;;;;;;;24.75;10.73;;;;;;;;;;4811027;29;20027;-83
2022/03/17 11:10:59;;;;;;;21.45;10.40;;;;;;;;;;4811273;29;20072;-84
2022/03/17 11:13:31;;;;;;;22.70;9.90;;;;;;;;;;4826551;29;20506;-84
2022/03/17 11:16:01;;;;;;;23.23;10.50;;;;;;;;;;4811220;29;20496;-84
2022/03/17 11:18:27;;;;;;;24.27;10.95;;;;;;;;;;4810834;29;20074;-83
2022/03/17 11:21:26;;;;;;;20.08;9.43;;;;;;;;;;4893346;23;20066;-83
2022/03/17 11:24:04;;;;;;;24.20;11.43;;;;;;;;;;4786686;29;20095;-85
2022/03/17 11:26:37;;;;;;;20.90;10.02;;;;;;;;;;4810855;29;20073;-84
2022/03/17 11:29:25;;;;;;;22.48;10.35;;;;;;;;;;4811141;29;20121;-83
2022/03/17 11:31:51;;;;;;;24.00;10.73;;;;;;;;;;4810882;29;20374;-82
2022/03/17 11:34:42;;;;;;;25.63;10.40;;;;;;;;;;4810973;29;20069;-83
2022/03/17 11:44:14;;;;;;;23.90;10.43;;;;;;;;;;4821414;29;20034;-85
2022/03/17 11:50:22;;;;;;;;;;;;;;;;;;;;;
2022/03/17 12:00:45;;;;;;;26.90;11.13;;;;;;;;;;5236527;23;20092;-83
2022/03/17 12:03:20;;;;;;;25.75;11.98;;;;;;;;;;4828498;29;20411;-83
2022/03/17 12:06:04;;;;;;;28.25;12.30;;;;;;;;;;4827687;29;20117;-84
2022/03/17 12:14:52;;;;;;;18.80;9.98;;;;;;;;;;4846625;29;20037;-84
2022/03/17 12:20:11;;;;;;;23.38;10.52;;;;;;;;;;4954382;23;20078;-83
2022/03/17 12:26:00;;;;;;;21.13;9.63;;;;;;;;;;4844516;29;20359;-83
2022/03/17 12:28:45;;;;;;;24.98;10.88;;;;;;;;;;4842766;29;20362;-86
2022/03/17 12:31:12;;;;;;;25.58;12.43;;;;;;;;;;4843630;29;20054;-85
2022/03/17 12:33:45;;;;;;;20.75;10.23;;;;;;;;;;4844744;29;20067;-84
2022/03/17 12:36:14;;;;;;;22.08;10.18;;;;;;;;;;4828147;29;20026;-83
2022/03/17 12:42:05;;;;;;;22.17;9.57;;;;;;;;;;5022400;23;20251;-84
2022/03/17 12:47:43;;;;;;;23.73;10.75;;;;;;;;;;4875442;23;20109;-83
2022/03/17 12:50:13;;;;;;;24.92;10.38;;;;;;;;;;4827792;29;20034;-82
2022/03/17 12:52:41;;;;;;;21.33;10.80;;;;;;;;;;4828073;29;20460;-83
2022/03/17 12:55:09;;;;;;;33.30;11.15;;;;;;;;;;4827528;29;20118;-83
2022/03/17 13:00:50;;;;;;;27.20;12.90;;;;;;;;;;4806012;29;20046;-83
2022/03/17 13:18:18;;;;;;;26.60;12.60;;;;;;;;;;4824254;29;20083;-90
2022/03/17 14:56:33;;;;;;;27.17;13.52;;;;;;;;;;5339288;23;20475;-82
2022/03/17 14:58:59;;;;;;;31.83;14.18;;;;;;;;;;4825654;29;20034;-83
2022/03/17 15:04:01;;;;;;;30.92;13.82;;;;;;;;;;5563181;23;20061;-84
2022/03/17 15:06:27;;;;;;;26.52;13.27;;;;;;;;;;4841948;29;20476;-84
2022/03/17 15:08:54;;;;;;;21.63;11.80;;;;;;;;;;4825944;29;20038;-83
2022/03/17 15:11:20;;;;;;;23.23;11.40;;;;;;;;;;4825807;29;20083;-84
2022/03/17 15:13:49;;;;;;;22.05;10.23;;;;;;;;;;4825562;29;20042;-83
2022/03/17 15:16:15;;;;;;;25.75;11.00;;;;;;;;;;4825829;29;20029;-83
2022/03/17 15:18:41;;;;;;;28.77;13.75;;;;;;;;;;4825976;29;20425;-83
2022/03/17 15:23:39;;;;;;;31.20;13.73;;;;;;;;;;4840902;29;20064;-83
2022/03/17 15:26:09;;;;;;;29.48;13.38;;;;;;;;;;4840835;29;20075;-88
2022/03/17 15:31:20;;;;;;;32.72;14.57;;;;;;;;;;4842544;29;20044;-84
2022/03/17 15:33:52;;;;;;;28.60;13.48;;;;;;;;;;4840963;29;20510;-83
2022/03/17 15:36:21;;;;;;;27.85;13.70;;;;;;;;;;4840870;29;20022;-83
2022/03/17 15:38:47;;;;;;;30.60;14.75;;;;;;;;;;4840409;29;20129;-84
2022/03/17 15:41:26;;;;;;;35.92;16.27;;;;;;;;;;4842468;29;20030;-84
2022/03/17 15:50:26;;;;;;;35.53;17.05;;;;;;;;;;4847646;29;20449;-88
2022/03/17 15:52:56;;;;;;;33.45;15.50;;;;;;;;;;4828857;29;20121;-84
2022/03/17 15:55:22;;;;;;;37.58;17.33;;;;;;;;;;4826614;29;20026;-85
2022/03/17 15:57:49;;;;;;;37.17;17.35;;;;;;;;;;4829070;29;20409;-83
2022/03/17 16:00:18;;;;;;;42.15;18.77;;;;;;;;;;4828965;29;20110;-83
2022/03/17 16:02:48;;;;;;;45.25;19.17;;;;;;;;;;4829703;29;20026;-86
2022/03/17 16:05:14;;;;;;;43.33;19.17;;;;;;;;;;4831181;29;20094;-82
2022/03/17 16:07:48;;;;;;;43.50;19.10;;;;;;;;;;4850246;29;20488;-90
2022/03/17 16:15:59;;;;;;;56.40;22.20;;;;;;;;;;4844957;29;20414;-91
2022/03/17 16:18:30;;;;;;;39.72;18.02;;;;;;;;;;4828689;29;20079;-86
2022/03/17 16:20:58;;;;;;;29.60;16.60;;;;;;;;;;4845086;29;20091;-84
2022/03/17 16:23:24;;;;;;;35.63;17.13;;;;;;;;;;4829110;29;20069;-84
2022/03/17 16:25:51;;;;;;;30.23;16.77;;;;;;;;;;4827972;29;20042;-83
2022/03/17 16:28:28;;;;;;;32.47;17.52;;;;;;;;;;4848398;29;20026;-90
2022/03/17 16:39:32;;;;;;;28.95;16.38;;;;;;;;;;4846601;29;20032;-85
2022/03/17 16:42:13;;;;;;;32.00;17.10;;;;;;;;;;4823988;29;20039;-85
2022/03/17 16:44:40;;;;;;;34.20;17.13;;;;;;;;;;4823918;29;20246;-86
2022/03/17 16:47:40;;;;;;;32.80;18.08;;;;;;;;;;4950251;23;20057;-88
2022/03/17 16:50:15;;;;;;;37.67;18.67;;;;;;;;;;4828126;29;20037;-84
2022/03/17 16:52:43;;;;;;;31.55;18.13;;;;;;;;;;4847210;29;20052;-83
2022/03/17 16:55:10;;;;;;;36.17;19.85;;;;;;;;;;4844014;29;20043;-84
2022/03/17 16:57:36;;;;;;;38.22;19.17;;;;;;;;;;4844372;29;20425;-84
2022/03/17 17:00:02;;;;;;;42.47;19.80;;;;;;;;;;4827676;29;20086;-85
2022/03/17 17:05:32;;;;;;;40.20;20.27;;;;;;;;;;4843713;29;20045;-83
2022/03/17 17:07:58;;;;;;;39.70;21.23;;;;;;;;;;4827364;29;20480;-83
2022/03/17 17:10:24;;;;;;;35.92;21.02;;;;;;;;;;4827190;29;20029;-85
2022/03/17 17:12:51;;;;;;;43.75;21.02;;;;;;;;;;4826950;29;20473;-84
2022/03/17 17:15:17;;;;;;;46.75;24.58;;;;;;;;;;4827222;29;20447;-83
2022/03/17 17:17:46;;;;;;;52.45;23.70;;;;;;;;;;4827245;29;20057;-84
2022/03/17 17:20:15;;;;;;;47.22;25.38;;;;;;;;;;4827332;29;20025;-87
2022/03/17 17:30:58;;;;;;;48.33;25.77;;;;;;;;;;4844671;29;20123;-84
2022/03/17 17:33:27;;;;;;;49.45;24.05;;;;;;;;;;4828213;29;20050;-84
2022/03/17 17:35:54;;;;;;;50.33;23.58;;;;;;;;;;4827266;29;20026;-83
2022/03/17 17:38:24;;;;;;;55.58;26.58;;;;;;;;;;4827176;29;20030;-83
2022/03/17 17:40:50;;;;;;;57.03;22.80;;;;;;;;;;4827128;29;20037;-84
2022/03/17 17:43:17;;;;;;;42.38;20.67;;;;;;;;;;4827143;29;20624;-83
2022/03/17 17:48:19;;;;;;;50.17;22.45;;;;;;;;;;5074511;23;20089;-92
